Terminal Aerodrome Forecast
Issued by NWS

Home | Current Version | Previous Version | Text Only | Print | Product List | Glossary On
Versions: 1 2 3 4 5 6 7 8 9 10 11 12 13
000
FTUS46 KLOX 020533
TAFVNY
TAF
KVNY 020533Z 0206/0306 VRB03KT P6SM SCT250
     FM021100 VRB03KT 3SM BR BKN005
     FM021700 VRB05KT P6SM FEW010 SCT250
     FM022000 13008KT P6SM SCT250
     FM030500 VRB03KT P6SM SKC=

USA.gov is the U.S. government's official web portal to all federal, state and local government web resources and services.